Time;durP1;ratioP1;P1;durP2;ratioP2;P2;SDS_P1;SDS_P2;PMS_P1;PMS_P2;Temp;Humidity;BMP_temperature;BMP_pressure;BME280_temperature;BME280_humidity;BME280_pressure;Samples;Min_cycle;Max_cycle;Signal;HPM_P1;HPM_P2
2021/03/16 00:02:15;;;;;;;8.93;4.20;;;5.30;99.90;;;;;;5050775;28;20672;-89
2021/03/16 00:04:42;;;;;;;7.00;3.30;;;5.30;99.90;;;;;;5058936;28;20610;-91
2021/03/16 00:07:10;;;;;;;8.27;4.20;;;5.30;99.90;;;;;;5070894;28;20697;-91
2021/03/16 00:09:37;;;;;;;6.60;4.13;;;5.30;99.90;;;;;;5034722;28;20958;-92
2021/03/16 00:12:04;;;;;;;6.27;3.40;;;5.30;99.90;;;;;;5034603;28;20650;-91
2021/03/16 00:14:30;;;;;;;6.00;3.90;;;5.20;99.90;;;;;;5053131;28;21164;-91
2021/03/16 00:16:57;;;;;;;7.90;4.00;;;5.20;99.90;;;;;;5057684;28;20648;-90
2021/03/16 00:19:26;;;;;;;5.90;3.70;;;5.20;99.90;;;;;;5053344;28;20720;-91
2021/03/16 00:21:52;;;;;;;7.77;3.90;;;5.20;99.90;;;;;;5046067;28;20665;-90
2021/03/16 00:24:18;;;;;;;6.67;3.40;;;5.20;99.90;;;;;;5047353;28;20613;-91
2021/03/16 00:26:46;;;;;;;4.33;3.43;;;5.20;99.90;;;;;;5049706;28;21216;-91
2021/03/16 00:29:12;;;;;;;5.03;3.10;;;5.10;99.90;;;;;;5047971;28;20725;-89
2021/03/16 00:31:40;;;;;;;6.10;3.80;;;5.10;99.90;;;;;;5049058;28;20637;-90
2021/03/16 00:34:07;;;;;;;4.43;2.90;;;5.10;99.90;;;;;;5048051;28;20637;-91
2021/03/16 00:36:35;;;;;;;8.57;3.50;;;5.10;99.90;;;;;;5047405;28;20711;-90
2021/03/16 00:39:04;;;;;;;7.53;4.00;;;5.10;99.90;;;;;;5048473;28;20641;-90
2021/03/16 00:41:30;;;;;;;4.40;3.17;;;5.20;99.90;;;;;;5048254;28;20657;-90
2021/03/16 00:43:56;;;;;;;8.17;3.43;;;5.10;99.90;;;;;;5050146;28;20626;-89
2021/03/16 00:46:23;;;;;;;6.33;3.63;;;5.10;99.90;;;;;;5024017;28;20661;-91
2021/03/16 00:48:49;;;;;;;5.63;3.10;;;5.20;99.90;;;;;;5041745;28;20637;-91
2021/03/16 00:51:17;;;;;;;8.70;2.93;;;5.20;99.90;;;;;;5047163;28;20626;-90
2021/03/16 00:53:43;;;;;;;5.47;2.73;;;5.20;99.90;;;;;;5028049;28;20629;-87
2021/03/16 00:56:10;;;;;;;6.13;3.17;;;5.20;99.90;;;;;;5043760;28;20677;-91
2021/03/16 00:58:36;;;;;;;7.87;3.57;;;5.30;99.90;;;;;;5045856;28;20978;-90
2021/03/16 01:01:06;;;;;;;5.43;2.97;;;5.30;99.90;;;;;;5044788;28;20634;-89
2021/03/16 01:03:33;;;;;;;8.27;2.97;;;5.30;99.90;;;;;;5047217;28;20642;-90
2021/03/16 01:06:00;;;;;;;6.53;3.10;;;5.30;99.90;;;;;;5051088;28;20650;-90
2021/03/16 01:08:27;;;;;;;7.10;3.03;;;5.40;99.90;;;;;;5046793;28;20633;-91
2021/03/16 01:10:54;;;;;;;4.67;2.40;;;5.40;99.90;;;;;;5045986;28;20626;-91
2021/03/16 01:13:21;;;;;;;5.23;2.77;;;5.40;99.90;;;;;;5049652;28;20624;-91
2021/03/16 01:15:48;;;;;;;4.10;3.03;;;5.30;99.90;;;;;;5042337;28;20677;-91
2021/03/16 01:18:15;;;;;;;3.80;2.80;;;5.30;99.90;;;;;;5043314;28;20711;-91
2021/03/16 01:20:42;;;;;;;4.60;3.33;;;5.30;99.90;;;;;;5031088;28;20657;-94
2021/03/16 01:23:09;;;;;;;3.67;2.90;;;5.20;99.90;;;;;;5051304;28;20663;-93
2021/03/16 01:25:36;;;;;;;4.60;2.93;;;5.20;99.90;;;;;;5027142;28;20653;-90
2021/03/16 01:28:03;;;;;;;5.73;2.97;;;5.20;99.90;;;;;;5041153;28;20782;-90
2021/03/16 01:30:29;;;;;;;7.07;2.70;;;5.20;99.90;;;;;;5044882;28;20645;-91
2021/03/16 01:32:56;;;;;;;5.03;3.30;;;5.20;99.90;;;;;;5040276;28;20617;-90
2021/03/16 01:35:23;;;;;;;5.30;3.30;;;5.20;99.90;;;;;;5042888;28;20650;-91
2021/03/16 01:37:51;;;;;;;3.87;2.47;;;5.10;99.90;;;;;;5045172;28;20578;-91
2021/03/16 01:40:19;;;;;;;4.40;3.33;;;5.20;99.90;;;;;;5047919;28;21116;-92
2021/03/16 01:42:48;;;;;;;5.90;3.23;;;5.10;99.90;;;;;;5043370;28;20656;-92
2021/03/16 01:45:17;;;;;;;7.83;3.80;;;5.20;99.90;;;;;;5045145;28;20698;-92
2021/03/16 01:47:47;;;;;;;7.83;4.57;;;5.10;99.90;;;;;;5044715;28;21229;-91
2021/03/16 01:50:18;;;;;;;11.10;5.83;;;5.10;99.90;;;;;;5043161;28;20681;-91
2021/03/16 01:52:45;;;;;;;13.40;6.07;;;5.10;99.90;;;;;;5040860;28;20618;-90
2021/03/16 01:55:13;;;;;;;10.90;4.63;;;5.10;99.90;;;;;;5040845;28;20692;-90
2021/03/16 01:57:41;;;;;;;10.73;5.30;;;5.10;99.90;;;;;;5043665;28;20633;-91
2021/03/16 02:00:10;;;;;;;6.97;4.50;;;5.20;99.90;;;;;;5044735;28;20636;-91
2021/03/16 02:02:37;;;;;;;7.10;4.30;;;5.20;99.90;;;;;;5045319;28;20716;-91
2021/03/16 02:05:06;;;;;;;6.17;3.80;;;5.20;99.90;;;;;;5056863;28;20656;-91
2021/03/16 02:07:37;;;;;;;7.10;4.90;;;5.20;99.90;;;;;;5056228;28;20720;-91
2021/03/16 02:10:08;;;;;;;5.77;4.00;;;5.20;99.90;;;;;;5056999;28;20633;-91
2021/03/16 02:12:42;;;;;;;8.00;4.43;;;5.20;99.90;;;;;;5067100;28;20609;-92
2021/03/16 02:15:14;;;;;;;4.93;3.10;;;5.10;99.90;;;;;;5055741;28;20653;-90
2021/03/16 02:17:44;;;;;;;8.13;3.20;;;5.10;99.90;;;;;;5056880;28;20629;-91
2021/03/16 02:20:33;;;;;;;3.60;3.30;;;5.10;99.90;;;;;;5061208;28;20656;-93
2021/03/16 02:23:02;;;;;;;3.97;2.63;;;5.10;99.90;;;;;;5055544;28;20653;-92
2021/03/16 02:25:46;;;;;;;5.80;2.30;;;5.10;99.90;;;;;;5040196;28;20649;-92
2021/03/16 02:28:24;;;;;;;8.07;3.30;;;5.00;99.90;;;;;;5053284;28;20601;-92
2021/03/16 02:30:53;;;;;;;5.03;3.17;;;5.00;99.90;;;;;;5046994;28;21159;-92
2021/03/16 02:33:24;;;;;;;6.13;3.80;;;5.10;99.90;;;;;;5044457;28;21003;-92
2021/03/16 02:35:52;;;;;;;8.03;3.23;;;5.10;99.90;;;;;;5047325;28;21017;-92
2021/03/16 02:38:22;;;;;;;6.80;2.93;;;5.00;99.90;;;;;;5041100;28;20661;-93
2021/03/16 02:40:52;;;;;;;3.10;2.80;;;5.00;99.90;;;;;;5041745;28;20622;-90
2021/03/16 02:43:20;;;;;;;7.43;3.30;;;5.00;99.90;;;;;;5045757;28;20650;-90
2021/03/16 02:45:48;;;;;;;7.60;3.20;;;5.10;99.90;;;;;;5045880;28;20658;-90
2021/03/16 02:48:17;;;;;;;7.27;3.30;;;5.00;99.90;;;;;;5047179;28;20982;-91
2021/03/16 02:50:47;;;;;;;6.60;3.33;;;5.00;99.90;;;;;;5048977;28;20636;-90
2021/03/16 02:53:15;;;;;;;5.17;3.10;;;4.90;99.90;;;;;;5048031;28;20650;-90
2021/03/16 02:55:42;;;;;;;7.30;2.80;;;4.90;99.90;;;;;;5041266;28;20658;-91
2021/03/16 02:58:09;;;;;;;6.63;3.13;;;4.90;99.90;;;;;;5047752;28;21011;-91
2021/03/16 03:00:37;;;;;;;5.63;3.27;;;4.90;99.90;;;;;;5050830;28;20976;-91
2021/03/16 03:03:05;;;;;;;6.93;3.30;;;4.90;99.90;;;;;;5049588;28;21224;-92
2021/03/16 03:05:33;;;;;;;8.87;2.87;;;5.00;99.90;;;;;;5044799;28;20753;-92
2021/03/16 03:08:00;;;;;;;5.17;2.73;;;5.00;99.90;;;;;;5045146;28;21055;-91
2021/03/16 03:10:26;;;;;;;6.20;3.23;;;4.90;99.90;;;;;;5048691;28;20652;-94
2021/03/16 03:12:53;;;;;;;5.97;3.70;;;4.90;99.90;;;;;;5050787;28;20633;-93
2021/03/16 03:15:20;;;;;;;6.73;3.73;;;4.90;99.90;;;;;;5051119;28;20661;-93
2021/03/16 03:17:47;;;;;;;6.90;3.37;;;4.80;99.90;;;;;;5057620;28;20641;-94
2021/03/16 03:20:15;;;;;;;7.03;2.87;;;4.70;99.90;;;;;;5048446;28;20637;-93
2021/03/16 03:22:45;;;;;;;5.40;2.90;;;4.70;99.90;;;;;;5044818;28;20650;-93
2021/03/16 03:25:20;;;;;;;4.90;3.43;;;4.70;99.90;;;;;;5051833;28;20666;-94
2021/03/16 03:27:50;;;;;;;6.30;3.17;;;4.70;99.90;;;;;;5030862;28;21046;-93
2021/03/16 03:30:22;;;;;;;6.47;3.20;;;4.70;99.90;;;;;;5032341;28;20650;-91
2021/03/16 03:32:48;;;;;;;9.30;4.07;;;4.70;99.90;;;;;;5050704;28;20621;-91
2021/03/16 03:35:16;;;;;;;3.77;2.67;;;4.70;99.90;;;;;;5050580;28;21071;-91
2021/03/16 03:37:46;;;;;;;7.53;3.87;;;4.80;99.90;;;;;;5053532;28;20622;-92
2021/03/16 03:40:16;;;;;;;5.33;3.00;;;4.90;99.90;;;;;;5045219;28;21224;-92
2021/03/16 03:42:44;;;;;;;5.60;2.60;;;4.90;99.90;;;;;;5048721;28;20656;-91
2021/03/16 03:45:13;;;;;;;5.67;3.00;;;4.80;99.90;;;;;;5045165;28;20662;-90
2021/03/16 03:47:42;;;;;;;4.90;3.20;;;4.90;99.90;;;;;;5045244;28;20625;-90
2021/03/16 03:50:13;;;;;;;5.80;3.30;;;4.70;99.90;;;;;;5044916;28;21120;-91
2021/03/16 03:52:40;;;;;;;4.93;3.20;;;4.70;99.90;;;;;;5041323;28;20684;-90
2021/03/16 03:55:09;;;;;;;3.93;2.93;;;4.70;99.90;;;;;;5040427;28;20696;-90
2021/03/16 03:57:36;;;;;;;6.87;3.27;;;4.60;99.90;;;;;;5047913;28;20606;-90
2021/03/16 04:00:07;;;;;;;6.93;3.27;;;4.60;99.90;;;;;;5045292;28;20680;-91
2021/03/16 04:02:35;;;;;;;9.20;3.53;;;4.70;99.90;;;;;;5043205;28;20657;-90
2021/03/16 04:05:02;;;;;;;6.17;3.37;;;4.60;99.90;;;;;;5045861;28;20662;-90
2021/03/16 04:07:29;;;;;;;5.83;3.40;;;4.60;99.90;;;;;;5049449;28;20610;-90
2021/03/16 04:09:56;;;;;;;5.67;3.07;;;4.60;99.90;;;;;;5046290;28;20634;-90
2021/03/16 04:12:24;;;;;;;7.73;3.07;;;4.60;99.90;;;;;;5043775;28;20621;-90
2021/03/16 04:14:50;;;;;;;3.97;3.57;;;4.60;99.90;;;;;;5044285;28;20653;-91
2021/03/16 04:17:17;;;;;;;10.23;4.13;;;4.60;99.90;;;;;;5042328;28;20677;-90
2021/03/16 04:19:44;;;;;;;6.53;2.87;;;4.60;99.90;;;;;;5042826;28;20630;-90
2021/03/16 04:22:11;;;;;;;6.77;4.37;;;4.60;99.90;;;;;;5044220;28;20662;-91
2021/03/16 04:24:37;;;;;;;6.30;3.90;;;4.70;99.90;;;;;;5047161;28;21100;-90
2021/03/16 04:27:04;;;;;;;8.47;3.40;;;4.70;99.90;;;;;;5043800;28;21036;-91
2021/03/16 04:29:31;;;;;;;4.80;2.60;;;4.60;99.90;;;;;;5044356;28;20633;-89
2021/03/16 04:31:57;;;;;;;7.50;2.77;;;4.60;99.90;;;;;;5042738;28;20823;-89
2021/03/16 04:34:24;;;;;;;9.23;3.10;;;4.50;99.90;;;;;;5042985;28;20636;-89
2021/03/16 04:36:50;;;;;;;5.87;2.30;;;4.40;99.90;;;;;;5045502;28;20662;-92
2021/03/16 04:39:17;;;;;;;5.80;2.73;;;4.30;99.90;;;;;;5044584;28;20637;-90
2021/03/16 04:41:44;;;;;;;8.40;2.70;;;4.20;99.90;;;;;;5048052;28;20665;-91
2021/03/16 04:44:10;;;;;;;3.80;2.73;;;4.20;99.90;;;;;;5024468;28;20676;-90
2021/03/16 04:46:37;;;;;;;7.37;3.20;;;4.20;99.90;;;;;;5043154;28;20634;-89
2021/03/16 04:49:03;;;;;;;7.90;3.90;;;4.20;99.90;;;;;;5058844;28;20622;-92
2021/03/16 04:51:30;;;;;;;4.47;2.60;;;4.20;99.90;;;;;;5054441;28;20629;-93
2021/03/16 04:53:56;;;;;;;8.10;3.10;;;4.10;99.90;;;;;;5050263;28;20650;-92
2021/03/16 04:56:22;;;;;;;7.80;3.63;;;4.10;99.90;;;;;;5050818;28;20664;-92
2021/03/16 04:58:49;;;;;;;5.63;3.23;;;4.00;99.90;;;;;;5057730;28;20641;-92
2021/03/16 05:01:17;;;;;;;9.23;3.40;;;4.20;99.90;;;;;;5068968;28;20630;-92
2021/03/16 05:03:44;;;;;;;6.70;3.03;;;4.10;99.90;;;;;;5067438;28;20892;-93
2021/03/16 05:06:10;;;;;;;7.53;3.17;;;4.10;99.90;;;;;;5069188;28;20698;-93
2021/03/16 05:08:37;;;;;;;5.10;3.50;;;4.20;99.90;;;;;;5048369;28;20622;-93
2021/03/16 05:11:04;;;;;;;6.20;3.03;;;4.10;99.90;;;;;;5068153;28;20622;-93
2021/03/16 05:13:31;;;;;;;7.77;3.30;;;4.10;99.90;;;;;;5062894;28;20645;-93
2021/03/16 05:15:57;;;;;;;7.10;3.40;;;4.20;99.90;;;;;;5065471;28;20607;-90
2021/03/16 05:18:24;;;;;;;10.23;3.30;;;4.30;99.90;;;;;;5067526;28;20641;-91
2021/03/16 05:21:00;;;;;;;6.37;2.93;;;4.30;99.90;;;;;;5068196;28;20677;-90
2021/03/16 05:23:27;;;;;;;6.20;2.50;;;4.40;99.90;;;;;;5065978;28;20725;-89
2021/03/16 05:25:55;;;;;;;5.90;2.80;;;4.50;99.90;;;;;;5063340;28;20649;-91
2021/03/16 05:28:21;;;;;;;5.47;2.43;;;4.40;99.90;;;;;;5061420;28;20623;-90
2021/03/16 05:30:48;;;;;;;5.00;3.60;;;4.40;99.90;;;;;;5068301;28;20660;-90
2021/03/16 05:33:15;;;;;;;5.23;2.77;;;4.50;99.90;;;;;;5059366;28;20660;-91
2021/03/16 05:35:41;;;;;;;6.97;2.80;;;4.40;99.90;;;;;;5057328;28;21245;-90
2021/03/16 05:38:08;;;;;;;5.30;2.97;;;4.50;99.90;;;;;;5048144;28;20664;-90
2021/03/16 05:40:34;;;;;;;5.20;3.20;;;4.60;99.90;;;;;;5044906;28;20634;-91
2021/03/16 05:43:00;;;;;;;3.70;2.80;;;4.50;99.90;;;;;;5047454;28;20824;-90
2021/03/16 05:45:28;;;;;;;5.13;2.60;;;4.50;99.90;;;;;;5040571;28;20623;-93
2021/03/16 05:47:57;;;;;;;6.40;3.67;;;4.50;99.90;;;;;;5047604;28;20630;-91
2021/03/16 05:50:23;;;;;;;5.00;3.30;;;4.50;99.90;;;;;;5046386;28;20631;-92
2021/03/16 05:52:53;;;;;;;7.80;3.13;;;4.40;99.90;;;;;;5047346;28;20653;-90
2021/03/16 05:55:24;;;;;;;7.93;2.80;;;4.40;99.90;;;;;;5049832;28;20634;-92
2021/03/16 05:57:50;;;;;;;8.17;3.43;;;4.50;99.90;;;;;;5053112;28;20602;-93
2021/03/16 06:00:18;;;;;;;10.23;3.70;;;4.40;99.90;;;;;;5032313;28;21161;-92
2021/03/16 06:02:51;;;;;;;4.97;3.20;;;4.40;99.90;;;;;;5049037;28;20732;-92
2021/03/16 06:05:18;;;;;;;6.60;2.83;;;4.40;99.90;;;;;;5048686;28;20627;-92
2021/03/16 06:07:49;;;;;;;7.27;2.77;;;4.50;99.90;;;;;;5031963;28;20634;-94
2021/03/16 06:10:18;;;;;;;7.90;3.17;;;4.50;99.90;;;;;;5029482;28;20665;-92
2021/03/16 06:12:49;;;;;;;6.50;2.93;;;4.50;99.90;;;;;;5049024;28;20695;-93
2021/03/16 06:15:18;;;;;;;8.97;3.80;;;4.60;99.90;;;;;;5026594;28;20631;-93
2021/03/16 06:17:45;;;;;;;4.70;2.90;;;4.60;99.90;;;;;;5051676;28;21215;-90
2021/03/16 06:20:27;;;;;;;4.03;2.80;;;4.60;99.90;;;;;;5046602;28;21177;-93
2021/03/16 06:23:08;;;;;;;7.23;3.10;;;4.60;99.90;;;;;;5041658;28;20658;-89
2021/03/16 06:25:36;;;;;;;6.40;2.90;;;4.60;99.90;;;;;;5051736;28;20865;-90
2021/03/16 06:28:05;;;;;;;6.03;3.23;;;4.60;99.90;;;;;;5045932;28;20630;-92
2021/03/16 06:30:32;;;;;;;8.20;3.43;;;4.70;99.90;;;;;;5049442;28;21249;-91
2021/03/16 06:32:58;;;;;;;7.03;3.43;;;4.70;99.90;;;;;;5045252;28;20619;-92
2021/03/16 06:35:26;;;;;;;6.17;2.90;;;4.70;99.90;;;;;;5051600;28;20618;-92
2021/03/16 06:38:05;;;;;;;7.23;2.73;;;4.70;99.90;;;;;;5049142;28;20671;-91
2021/03/16 06:40:33;;;;;;;9.23;3.83;;;4.70;99.90;;;;;;5048030;28;20656;-93
2021/03/16 06:43:11;;;;;;;7.43;3.30;;;4.70;99.90;;;;;;5051572;28;20661;-94
2021/03/16 06:45:40;;;;;;;17.43;4.10;;;4.70;99.90;;;;;;5051114;28;20638;-91
2021/03/16 06:48:14;;;;;;;6.60;3.77;;;4.70;99.90;;;;;;5049174;28;20626;-93
2021/03/16 06:50:41;;;;;;;6.93;3.50;;;4.70;99.90;;;;;;5046502;28;20671;-92
2021/03/16 06:53:13;;;;;;;5.73;3.50;;;4.70;99.90;;;;;;5055557;28;20641;-93
2021/03/16 06:55:51;;;;;;;8.27;3.20;;;4.70;99.90;;;;;;5054143;28;20630;-94
2021/03/16 06:58:24;;;;;;;5.80;2.57;;;4.80;99.90;;;;;;5047424;28;20634;-93
2021/03/16 07:03:23;;;;;;;8.83;3.40;;;4.80;99.90;;;;;;5047051;28;20667;-96
2021/03/16 07:05:49;;;;;;;8.93;3.90;;;4.80;99.90;;;;;;5052990;28;20665;-94
2021/03/16 07:08:18;;;;;;;8.57;3.67;;;4.80;99.90;;;;;;5025886;28;20670;-93
2021/03/16 07:10:45;;;;;;;6.40;3.13;;;4.80;99.90;;;;;;5030656;28;20635;-94
2021/03/16 07:13:12;;;;;;;9.63;3.23;;;5.00;99.90;;;;;;5029848;28;20655;-95
2021/03/16 07:15:44;;;;;;;4.27;3.10;;;5.00;99.90;;;;;;5025589;28;20623;-94
2021/03/16 07:18:17;;;;;;;5.30;2.93;;;4.90;99.90;;;;;;5028149;28;21156;-93
2021/03/16 07:20:46;;;;;;;8.30;3.63;;;4.90;99.90;;;;;;5028691;28;20689;-92
2021/03/16 07:23:15;;;;;;;9.13;3.40;;;4.90;99.90;;;;;;5031897;28;20687;-93
2021/03/16 07:25:43;;;;;;;6.57;3.27;;;4.80;99.90;;;;;;5040092;28;20699;-93
2021/03/16 07:28:13;;;;;;;9.10;3.00;;;4.60;99.90;;;;;;5043483;28;20703;-93
2021/03/16 07:30:46;;;;;;;6.97;3.20;;;4.50;99.90;;;;;;5032514;28;20631;-91
2021/03/16 07:33:19;;;;;;;6.23;3.50;;;4.30;99.90;;;;;;5030001;28;20643;-95
2021/03/16 07:35:50;;;;;;;8.70;3.50;;;4.30;99.90;;;;;;5048705;28;20621;-95
2021/03/16 07:38:16;;;;;;;12.00;6.37;;;4.20;99.90;;;;;;5040622;28;20639;-94
2021/03/16 07:40:45;;;;;;;10.00;4.97;;;4.10;99.90;;;;;;5034030;28;20982;-94
2021/03/16 07:43:14;;;;;;;5.70;4.23;;;4.00;99.90;;;;;;5027557;28;20727;-95
2021/03/16 07:45:52;;;;;;;10.93;4.50;;;3.90;99.90;;;;;;5029703;28;20654;-94
2021/03/16 07:48:44;;;;;;;9.70;3.70;;;3.80;99.90;;;;;;5036659;28;20717;-95
2021/03/16 07:51:19;;;;;;;7.07;4.20;;;3.70;99.90;;;;;;5041215;28;20628;-93
2021/03/16 07:53:54;;;;;;;15.40;4.97;;;3.70;99.90;;;;;;5030540;28;20721;-94
2021/03/16 07:56:27;;;;;;;9.40;4.30;;;4.00;99.90;;;;;;5036499;28;20655;-93
2021/03/16 07:59:30;;;;;;;7.43;4.00;;;4.10;99.90;;;;;;5171014;22;20681;-95
2021/03/16 08:02:08;;;;;;;13.53;6.23;;;4.10;99.90;;;;;;5251333;22;20695;-95
2021/03/16 08:04:41;;;;;;;13.07;3.70;;;4.30;99.90;;;;;;5080316;28;20688;-95
2021/03/16 08:07:12;;;;;;;5.87;4.70;;;4.50;99.90;;;;;;5091254;28;20655;-93
2021/03/16 08:09:46;;;;;;;8.83;4.80;;;4.60;99.90;;;;;;5088774;28;20614;-95
2021/03/16 08:12:21;;;;;;;9.23;4.57;;;4.70;99.90;;;;;;5070156;28;20752;-91
2021/03/16 08:14:47;;;;;;;12.03;5.50;;;4.90;99.90;;;;;;5074275;28;20658;-93
2021/03/16 08:17:26;;;;;;;10.00;4.83;;;5.10;99.90;;;;;;5067071;28;21042;-93
2021/03/16 08:19:52;;;;;;;9.73;5.67;;;5.20;99.90;;;;;;5060013;28;20690;-95
2021/03/16 08:22:21;;;;;;;14.77;5.60;;;5.20;99.90;;;;;;5073081;28;20722;-94
2021/03/16 08:24:47;;;;;;;10.00;4.30;;;5.30;99.90;;;;;;5073137;28;20624;-93
2021/03/16 08:27:18;;;;;;;6.63;3.87;;;5.30;99.90;;;;;;5072876;28;20629;-93
2021/03/16 08:29:49;;;;;;;10.33;4.70;;;5.30;99.90;;;;;;5074002;28;20687;-93
2021/03/16 08:32:19;;;;;;;11.33;3.80;;;5.30;99.90;;;;;;5058771;28;21063;-93
2021/03/16 08:34:49;;;;;;;11.67;4.80;;;5.20;99.90;;;;;;5073467;28;20703;-94
2021/03/16 08:37:22;;;;;;;7.87;3.50;;;5.20;99.90;;;;;;5076119;28;20673;-93
2021/03/16 08:39:50;;;;;;;8.70;4.03;;;5.10;99.90;;;;;;5074901;28;20632;-94
2021/03/16 08:42:21;;;;;;;10.03;4.23;;;5.10;99.90;;;;;;5062606;28;20677;-92
2021/03/16 08:44:50;;;;;;;8.50;4.33;;;5.10;99.90;;;;;;5072944;28;20620;-93
2021/03/16 08:47:20;;;;;;;8.40;3.50;;;5.10;99.90;;;;;;5072934;28;20625;-94
2021/03/16 08:49:51;;;;;;;6.17;3.90;;;5.10;99.90;;;;;;5069681;28;20638;-94
2021/03/16 08:52:28;;;;;;;7.20;3.77;;;5.20;99.90;;;;;;5071651;28;20657;-93
2021/03/16 08:54:57;;;;;;;8.50;3.70;;;5.20;99.90;;;;;;5075309;28;20664;-93
2021/03/16 08:57:30;;;;;;;5.70;4.03;;;5.40;99.90;;;;;;5071875;28;20618;-92
2021/03/16 09:00:03;;;;;;;11.57;4.00;;;5.40;99.90;;;;;;5076752;28;20613;-93
2021/03/16 09:02:38;;;;;;;9.10;3.77;;;5.50;99.90;;;;;;5072290;28;20657;-94
2021/03/16 09:08:00;;;;;;;6.03;3.93;;;5.70;99.90;;;;;;5074604;28;20632;-93
2021/03/16 09:10:40;;;;;;;10.80;3.93;;;6.00;99.90;;;;;;5079586;28;20665;-95
2021/03/16 09:13:07;;;;;;;7.23;3.57;;;6.00;99.90;;;;;;5073906;28;20622;-93
2021/03/16 09:15:35;;;;;;;6.03;3.70;;;5.90;99.90;;;;;;5074397;28;20629;-93
2021/03/16 09:18:07;;;;;;;11.73;3.73;;;5.90;99.90;;;;;;5075539;28;20640;-93
2021/03/16 09:20:37;;;;;;;9.67;4.37;;;6.10;99.90;;;;;;5083532;28;20667;-94
2021/03/16 09:23:13;;;;;;;5.10;4.20;;;6.20;99.90;;;;;;5083555;28;20757;-93
2021/03/16 09:25:44;;;;;;;7.00;3.73;;;6.00;99.90;;;;;;5072906;28;20690;-94
2021/03/16 09:28:12;;;;;;;6.80;4.30;;;6.00;99.90;;;;;;5076165;28;21238;-95
2021/03/16 09:30:48;;;;;;;7.67;4.10;;;5.90;99.90;;;;;;5072189;28;20648;-94
2021/03/16 09:33:19;;;;;;;8.67;4.03;;;5.80;99.90;;;;;;5071784;28;20668;-93
2021/03/16 09:35:55;;;;;;;10.30;3.80;;;5.80;99.90;;;;;;5072825;28;20633;-95
2021/03/16 09:38:24;;;;;;;8.87;4.57;;;5.90;99.90;;;;;;5065131;28;20629;-94
2021/03/16 09:40:51;;;;;;;7.50;4.33;;;6.00;99.90;;;;;;5072924;28;20718;-93
2021/03/16 09:43:19;;;;;;;10.20;4.37;;;5.90;99.90;;;;;;5070792;28;20769;-93
2021/03/16 09:45:53;;;;;;;11.00;4.27;;;5.90;99.90;;;;;;5069000;28;20629;-94
2021/03/16 09:48:22;;;;;;;7.70;3.30;;;5.80;99.90;;;;;;5067728;28;21232;-94
2021/03/16 09:50:50;;;;;;;5.60;3.53;;;5.70;99.90;;;;;;5068545;28;20728;-92
2021/03/16 09:53:19;;;;;;;7.93;3.80;;;5.80;99.90;;;;;;5072249;28;20664;-95
2021/03/16 09:56:01;;;;;;;9.43;4.30;;;5.90;99.90;;;;;;5068262;28;20637;-94
2021/03/16 09:58:30;;;;;;;7.60;4.30;;;5.90;99.90;;;;;;5072175;28;20726;-95
2021/03/16 10:01:01;;;;;;;6.70;3.93;;;5.90;99.90;;;;;;5073341;28;20642;-93
2021/03/16 10:03:32;;;;;;;6.20;4.00;;;5.80;99.90;;;;;;5071470;28;20665;-93
2021/03/16 10:06:07;;;;;;;6.20;3.57;;;5.70;99.90;;;;;;5065145;28;20667;-93
2021/03/16 10:08:33;;;;;;;6.10;3.17;;;5.60;99.90;;;;;;5065224;28;20727;-94
2021/03/16 10:11:00;;;;;;;6.90;3.07;;;5.50;99.90;;;;;;5068353;28;20721;-94
2021/03/16 10:13:35;;;;;;;7.93;3.43;;;5.50;99.90;;;;;;5067462;28;20664;-94
2021/03/16 10:16:10;;;;;;;8.80;4.17;;;5.50;99.90;;;;;;5068614;28;20651;-94
2021/03/16 10:18:40;;;;;;;6.73;3.77;;;5.50;99.90;;;;;;5063819;28;20625;-94
2021/03/16 10:21:08;;;;;;;8.30;3.67;;;5.40;99.90;;;;;;5067740;28;20621;-95
2021/03/16 10:23:34;;;;;;;4.90;3.30;;;5.50;99.90;;;;;;5072079;28;20677;-93
2021/03/16 10:26:04;;;;;;;7.63;4.30;;;5.60;99.90;;;;;;5072101;28;20628;-92
2021/03/16 10:28:33;;;;;;;8.43;3.07;;;5.80;99.90;;;;;;5068882;28;21163;-93
2021/03/16 10:31:14;;;;;;;7.23;3.70;;;5.90;99.90;;;;;;5071729;28;20598;-91
2021/03/16 10:33:42;;;;;;;5.67;3.90;;;5.90;99.90;;;;;;5073171;28;20637;-93
2021/03/16 10:36:11;;;;;;;8.00;4.97;;;5.90;99.90;;;;;;5072900;28;20627;-92
2021/03/16 10:38:40;;;;;;;9.60;5.00;;;6.20;99.90;;;;;;5079439;28;20644;-93
2021/03/16 10:41:06;;;;;;;9.93;5.27;;;6.50;99.90;;;;;;5072792;28;20712;-95
2021/03/16 10:43:36;;;;;;;9.37;4.80;;;6.80;99.90;;;;;;5073380;28;21223;-92
2021/03/16 10:46:03;;;;;;;8.37;4.00;;;6.80;99.90;;;;;;5064666;28;20622;-93
2021/03/16 10:48:31;;;;;;;12.57;4.63;;;6.60;99.90;;;;;;5067364;28;20635;-91
2021/03/16 10:51:03;;;;;;;7.03;4.40;;;6.80;99.90;;;;;;5064250;28;20739;-91
2021/03/16 10:53:31;;;;;;;10.20;4.27;;;6.70;99.90;;;;;;5065289;28;20656;-92
2021/03/16 10:55:57;;;;;;;9.90;4.50;;;6.70;99.90;;;;;;5068451;28;20628;-91
2021/03/16 10:58:24;;;;;;;14.10;4.00;;;6.80;99.90;;;;;;5060587;28;20635;-92
2021/03/16 11:00:51;;;;;;;9.70;3.90;;;6.90;99.90;;;;;;5066437;28;20637;-92
2021/03/16 11:03:17;;;;;;;8.40;4.27;;;6.90;99.90;;;;;;5070830;28;20684;-91
2021/03/16 11:05:44;;;;;;;6.73;3.60;;;6.80;99.90;;;;;;5065097;28;20620;-92
2021/03/16 11:08:12;;;;;;;6.20;4.03;;;6.80;99.90;;;;;;5073069;28;20618;-92
2021/03/16 11:10:38;;;;;;;10.70;4.27;;;6.80;99.90;;;;;;5071157;28;20629;-92
2021/03/16 11:13:04;;;;;;;8.70;4.50;;;6.80;99.90;;;;;;5062495;28;20657;-92
2021/03/16 11:15:32;;;;;;;7.90;5.00;;;7.00;99.90;;;;;;5069232;28;20622;-91
2021/03/16 11:17:58;;;;;;;8.67;4.67;;;7.10;99.90;;;;;;5068696;28;20651;-92
2021/03/16 11:20:25;;;;;;;9.23;4.40;;;7.30;99.90;;;;;;5067878;28;20629;-92
2021/03/16 11:22:52;;;;;;;12.17;4.10;;;7.10;99.90;;;;;;5067574;28;20688;-92
2021/03/16 11:25:19;;;;;;;8.03;4.50;;;7.10;99.90;;;;;;5069649;28;20637;-92
2021/03/16 11:27:47;;;;;;;7.40;4.50;;;7.30;99.90;;;;;;5072391;28;20620;-91
2021/03/16 11:30:14;;;;;;;7.27;4.10;;;7.20;99.90;;;;;;5062801;28;20628;-92
2021/03/16 11:32:41;;;;;;;8.63;4.87;;;7.00;99.90;;;;;;5060988;28;21387;-91
2021/03/16 11:35:10;;;;;;;12.57;4.00;;;7.10;99.90;;;;;;5061233;28;20627;-93
2021/03/16 11:37:36;;;;;;;12.03;4.40;;;7.20;99.90;;;;;;5063185;28;20648;-92
2021/03/16 11:40:04;;;;;;;5.87;4.10;;;7.10;99.90;;;;;;5064398;28;21025;-92
2021/03/16 11:42:33;;;;;;;8.20;3.67;;;7.00;99.90;;;;;;5060629;28;21215;-92
2021/03/16 11:45:00;;;;;;;9.90;3.60;;;7.20;99.90;;;;;;5068597;28;20976;-92
2021/03/16 11:47:27;;;;;;;8.23;4.03;;;7.30;99.90;;;;;;5058444;28;20618;-92
2021/03/16 11:49:53;;;;;;;9.73;4.27;;;7.20;99.90;;;;;;5069863;28;20639;-90
2021/03/16 11:52:19;;;;;;;6.47;3.93;;;6.90;99.90;;;;;;5080135;28;20630;-90
2021/03/16 11:54:46;;;;;;;5.57;3.80;;;7.00;99.90;;;;;;5078200;28;20645;-90
2021/03/16 11:57:12;;;;;;;6.53;3.90;;;6.90;99.90;;;;;;5066452;28;20654;-92
2021/03/16 11:59:42;;;;;;;8.97;3.73;;;6.60;99.90;;;;;;5067752;28;20612;-92
2021/03/16 12:02:08;;;;;;;9.63;4.70;;;6.60;99.90;;;;;;5069209;28;20636;-95
2021/03/16 12:04:35;;;;;;;6.93;4.60;;;6.60;99.90;;;;;;5056227;28;20644;-93
2021/03/16 12:07:01;;;;;;;6.67;3.83;;;6.40;99.90;;;;;;5074241;28;20634;-92
2021/03/16 12:09:30;;;;;;;6.37;3.70;;;6.20;99.90;;;;;;5068170;28;20636;-93
2021/03/16 12:11:56;;;;;;;5.63;3.90;;;6.10;99.90;;;;;;5065997;28;21017;-94
2021/03/16 12:14:29;;;;;;;5.27;3.40;;;6.00;99.90;;;;;;5071206;28;20824;-93
2021/03/16 12:17:00;;;;;;;6.57;3.50;;;6.10;99.90;;;;;;5069967;28;20632;-93
2021/03/16 12:19:27;;;;;;;6.53;3.50;;;6.30;99.90;;;;;;5061934;28;21068;-92
2021/03/16 12:21:53;;;;;;;5.50;4.03;;;6.40;99.90;;;;;;5070046;28;20613;-91
2021/03/16 12:24:20;;;;;;;9.00;3.63;;;6.50;99.90;;;;;;5073638;28;20715;-92
2021/03/16 12:26:46;;;;;;;9.00;4.13;;;6.50;99.90;;;;;;5070354;28;20625;-91
2021/03/16 12:29:12;;;;;;;10.63;3.87;;;6.70;99.90;;;;;;5064887;28;20609;-90
2021/03/16 12:31:40;;;;;;;9.50;4.10;;;6.70;99.90;;;;;;5067920;28;20632;-94
2021/03/16 12:34:07;;;;;;;6.20;3.70;;;6.80;99.90;;;;;;5067290;28;20641;-92
2021/03/16 12:36:34;;;;;;;9.13;4.90;;;7.00;99.90;;;;;;5072741;28;20621;-93
2021/03/16 12:39:00;;;;;;;8.37;4.00;;;7.20;99.90;;;;;;5070344;28;21048;-91
2021/03/16 12:41:27;;;;;;;10.10;4.07;;;7.30;99.90;;;;;;5062506;28;20625;-93
2021/03/16 12:43:55;;;;;;;7.30;4.00;;;7.60;99.90;;;;;;5066175;28;20673;-93
2021/03/16 12:46:22;;;;;;;8.97;3.27;;;7.50;99.90;;;;;;5062018;28;20704;-94
2021/03/16 12:48:48;;;;;;;3.70;2.67;;;7.60;99.90;;;;;;5071043;28;20637;-94
2021/03/16 12:51:16;;;;;;;4.17;2.70;;;7.60;99.90;;;;;;5070201;28;20629;-95
2021/03/16 12:53:43;;;;;;;5.93;3.70;;;7.80;99.90;;;;;;5074462;28;20660;-93
2021/03/16 12:56:13;;;;;;;9.33;3.00;;;7.80;99.90;;;;;;5063833;28;20630;-94
2021/03/16 12:58:44;;;;;;;7.80;3.13;;;7.50;99.90;;;;;;5056531;28;20686;-94
2021/03/16 13:01:10;;;;;;;4.53;2.60;;;7.40;99.90;;;;;;5066168;28;20629;-94
2021/03/16 13:03:37;;;;;;;5.03;2.90;;;7.40;99.90;;;;;;5080493;28;20784;-95
2021/03/16 13:06:05;;;;;;;4.87;3.00;;;7.20;99.90;;;;;;5083227;28;20705;-95
2021/03/16 13:08:33;;;;;;;6.23;3.40;;;7.30;99.90;;;;;;5070160;28;20629;-96
2021/03/16 13:10:59;;;;;;;9.20;3.90;;;7.30;99.30;;;;;;5065379;28;21237;-94